createdAt,value
2019-01-03T00:00:22.185Z,71.08
2019-01-03T00:01:22.175Z,71.26
2019-01-03T00:02:22.167Z,71.50
2019-01-03T00:03:22.156Z,71.61
2019-01-03T00:04:22.145Z,72.03
2019-01-03T00:05:22.135Z,71.89
2019-01-03T00:06:22.125Z,71.19
2019-01-03T00:07:22.113Z,71.92
2019-01-03T00:08:22.105Z,72.20
2019-01-03T00:09:22.093Z,72.03
2019-01-03T00:10:22.081Z,72.24
2019-01-03T00:11:22.070Z,72.13
2019-01-03T00:12:22.061Z,72.34
2019-01-03T00:13:22.049Z,72.76
2019-01-03T00:14:22.045Z,72.86
2019-01-03T00:15:22.029Z,72.76
2019-01-03T00:16:22.018Z,72.97
2019-01-03T00:17:22.009Z,72.76
2019-01-03T00:18:22.000Z,72.97
2019-01-03T00:19:21.988Z,73.08
2019-01-03T00:20:21.979Z,72.97
2019-01-03T00:21:21.967Z,73.50
2019-01-03T00:22:21.958Z,73.63
2019-01-03T00:23:21.946Z,73.92
2019-01-03T00:24:21.936Z,74.16
2019-01-03T00:25:21.924Z,74.05
2019-01-03T00:26:21.915Z,73.95
2019-01-03T00:27:21.905Z,73.81
2019-01-03T00:28:21.894Z,74.58
2019-01-03T00:29:21.886Z,74.37
2019-01-03T00:30:21.871Z,74.02
2019-01-03T00:31:21.860Z,74.23
2019-01-03T00:32:21.851Z,74.33
2019-01-03T00:33:21.841Z,74.23
2019-01-03T00:34:21.832Z,74.44
2019-01-03T00:35:21.819Z,74.44
2019-01-03T00:36:21.811Z,74.23
2019-01-03T00:37:21.799Z,74.27
2019-01-03T00:38:21.793Z,74.44
2019-01-03T00:39:21.777Z,74.23
2019-01-03T00:40:21.768Z,74.65
2019-01-03T00:41:21.757Z,74.97
2019-01-03T00:42:21.747Z,74.37
2019-01-03T00:43:21.737Z,74.65
2019-01-03T00:44:21.728Z,74.55
2019-01-03T00:45:21.713Z,74.44
2019-01-03T00:46:21.707Z,74.79
2019-01-03T00:47:21.694Z,75.00
2019-01-03T00:48:21.682Z,75.10
2019-01-03T00:49:21.673Z,75.07
2019-01-03T00:50:21.667Z,75.10
2019-01-03T00:51:21.652Z,75.28
2019-01-03T00:52:21.642Z,75.74
2019-01-03T00:53:21.631Z,76.26
2019-01-03T00:54:21.620Z,76.37
2019-01-03T00:55:21.612Z,76.47
2019-01-03T00:56:21.598Z,76.47
2019-01-03T00:57:21.588Z,76.47
2019-01-03T00:58:21.578Z,76.47
2019-01-03T00:59:21.567Z,76.05
2019-01-03T01:00:21.557Z,76.37
2019-01-03T01:01:21.549Z,76.47
2019-01-03T01:02:21.536Z,76.68
2019-01-03T01:03:21.525Z,76.47
2019-01-03T01:04:21.515Z,76.68
2019-01-03T01:05:21.505Z,76.57
2019-01-03T01:06:21.494Z,76.37
2019-01-03T01:07:21.482Z,76.37
2019-01-03T01:08:21.473Z,77.00
2019-01-03T01:09:21.462Z,77.28
2019-01-03T01:10:21.457Z,76.89
2019-01-03T01:11:21.441Z,77.10
2019-01-03T01:12:21.431Z,76.47
2019-01-03T01:13:21.422Z,76.68
2019-01-03T01:14:21.413Z,77.42
2019-01-03T01:15:21.398Z,77.59
2019-01-03T01:16:21.388Z,77.28
2019-01-03T01:17:21.377Z,76.96
2019-01-03T01:18:21.368Z,77.17
2019-01-03T01:19:21.355Z,76.86
2019-01-03T01:20:21.347Z,76.86
2019-01-03T01:21:21.338Z,76.33
2019-01-03T01:22:21.325Z,76.43
2019-01-03T01:23:21.316Z,76.54
2019-01-03T01:24:21.302Z,76.65
2019-01-03T01:25:21.292Z,76.54
2019-01-03T01:26:21.284Z,76.75
2019-01-03T01:27:21.273Z,76.23
2019-01-03T01:28:21.262Z,76.75
2019-01-03T01:29:21.251Z,77.38
2019-01-03T01:30:21.242Z,77.84
2019-01-03T01:31:21.232Z,77.59
2019-01-03T01:32:21.219Z,77.84
2019-01-03T01:33:21.210Z,77.94
2019-01-03T01:34:21.198Z,77.91
2019-01-03T01:35:21.188Z,78.05
2019-01-03T01:36:21.177Z,78.05
2019-01-03T01:37:21.170Z,78.64
2019-01-03T01:38:21.156Z,78.47
2019-01-03T01:39:21.145Z,78.26
2019-01-03T01:40:21.135Z,78.36
2019-01-03T01:41:21.126Z,78.36
2019-01-03T01:42:21.116Z,78.26
2019-01-03T01:43:21.105Z,78.57
2019-01-03T01:44:21.093Z,78.89
2019-01-03T01:45:21.082Z,78.89
2019-01-03T01:46:21.072Z,78.67
2019-01-03T01:47:21.061Z,78.67
2019-01-03T01:48:21.051Z,79.10
2019-01-03T01:49:21.040Z,78.67
2019-01-03T01:50:21.031Z,78.89
2019-01-03T01:51:21.026Z,78.89
2019-01-03T01:52:21.010Z,79.31
2019-01-03T01:53:21.001Z,79.31
2019-01-03T01:54:20.989Z,79.41
2019-01-03T01:55:20.980Z,79.21
2019-01-03T01:56:20.969Z,79.21
2019-01-03T01:57:20.957Z,79.41
2019-01-03T01:58:20.945Z,79.62
2019-01-03T01:59:20.937Z,79.94
2019-01-03T02:00:20.938Z,79.41
2019-01-03T02:01:20.913Z,79.83
2019-01-03T02:02:20.918Z,79.52
2019-01-03T02:03:20.894Z,79.73
2019-01-03T02:04:20.885Z,79.97
2019-01-03T02:05:20.871Z,80.46
2019-01-03T02:06:20.861Z,80.36
2019-01-03T02:07:20.850Z,79.73
2019-01-03T02:08:20.841Z,79.83
2019-01-03T02:09:20.827Z,79.41
2019-01-03T02:10:20.820Z,79.80
2019-01-03T02:11:20.808Z,79.90
2019-01-03T02:12:20.799Z,80.04
2019-01-03T02:13:20.786Z,80.57
2019-01-03T02:14:21.960Z,80.53
2019-01-03T02:15:20.768Z,80.04
2019-01-03T02:16:20.760Z,80.53
2019-01-03T02:17:20.744Z,80.57
2019-01-03T02:18:20.736Z,81.05
2019-01-03T02:19:20.730Z,80.99
2019-01-03T02:20:20.713Z,80.88
2019-01-03T02:21:20.708Z,80.57
2019-01-03T02:22:20.704Z,80.95
2019-01-03T02:23:20.684Z,80.57
2019-01-03T02:24:20.676Z,80.74
2019-01-03T02:25:20.659Z,80.85
2019-01-03T02:26:20.650Z,81.20
2019-01-03T02:27:20.641Z,80.95
2019-01-03T02:28:20.634Z,81.09
2019-01-03T02:29:20.628Z,81.62
2019-01-03T02:30:20.612Z,81.51
2019-01-03T02:31:20.604Z,81.73
2019-01-03T02:32:20.590Z,81.93
2019-01-03T02:33:20.576Z,81.51
2019-01-03T02:34:20.570Z,82.00
2019-01-03T02:35:20.560Z,81.37
2019-01-03T02:36:20.550Z,81.37
2019-01-03T02:37:20.535Z,81.30
2019-01-03T02:38:20.525Z,81.73
2019-01-03T02:39:20.568Z,81.30
2019-01-03T02:40:20.514Z,81.62
2019-01-03T02:41:20.494Z,81.79
2019-01-03T02:42:20.489Z,81.69
2019-01-03T02:43:20.471Z,81.37
2019-01-03T02:44:20.462Z,81.48
2019-01-03T02:45:20.450Z,81.48
2019-01-03T02:46:20.441Z,81.69
2019-01-03T02:47:20.430Z,81.05
2019-01-03T02:48:20.446Z,81.48
2019-01-03T02:49:20.410Z,81.58
2019-01-03T02:50:20.400Z,81.27
2019-01-03T02:51:20.388Z,81.69
2019-01-03T02:52:20.377Z,81.69
2019-01-03T02:53:20.366Z,81.58
2019-01-03T02:54:20.356Z,81.58
2019-01-03T02:55:20.344Z,81.69
2019-01-03T02:56:20.338Z,81.41
2019-01-03T02:57:20.325Z,82.10
2019-01-03T02:58:20.315Z,82.42
2019-01-03T02:59:20.304Z,82.53
2019-01-03T03:00:20.295Z,81.79
2019-01-03T03:01:20.285Z,81.90
2019-01-03T03:02:20.273Z,82.42
2019-01-03T03:03:20.278Z,81.90
2019-01-03T03:04:20.251Z,81.90
2019-01-03T03:05:20.241Z,81.86
2019-01-03T03:06:20.231Z,82.17
2019-01-03T03:07:20.220Z,81.90
2019-01-03T03:08:20.209Z,81.37
2019-01-03T03:09:20.198Z,81.86
2019-01-03T03:10:20.188Z,82.07
2019-01-03T03:11:20.179Z,82.00
2019-01-03T03:12:20.166Z,82.07
2019-01-03T03:13:20.165Z,81.44
2019-01-03T03:14:20.148Z,81.12
2019-01-03T03:15:20.137Z,81.34
2019-01-03T03:16:20.125Z,81.96
2019-01-03T03:17:20.115Z,81.65
2019-01-03T03:18:20.104Z,81.34
2019-01-03T03:19:20.095Z,82.07
2019-01-03T03:20:20.086Z,81.86
2019-01-03T03:21:20.074Z,81.90
2019-01-03T03:22:20.063Z,82.17
2019-01-03T03:23:20.050Z,82.17
2019-01-03T03:24:20.045Z,82.17
2019-01-03T03:25:20.034Z,82.07
2019-01-03T03:26:20.033Z,82.39
2019-01-03T03:27:20.008Z,82.07
2019-01-03T03:28:20.002Z,82.03
2019-01-03T03:29:21.490Z,81.44
2019-01-03T03:30:19.996Z,81.61
2019-01-03T03:31:19.969Z,81.61
2019-01-03T03:32:19.958Z,81.51
2019-01-03T03:33:19.946Z,81.61
2019-01-03T03:34:19.936Z,81.30
2019-01-03T03:35:19.925Z,81.93
2019-01-03T03:36:19.917Z,82.14
2019-01-03T03:37:19.909Z,81.93
2019-01-03T03:38:19.899Z,81.82
2019-01-03T03:39:19.885Z,82.10
2019-01-03T03:40:19.875Z,81.57
2019-01-03T03:41:19.863Z,81.26
2019-01-03T03:42:19.852Z,81.99
2019-01-03T03:43:19.843Z,81.89
2019-01-03T03:44:19.832Z,81.79
2019-01-03T03:45:19.821Z,81.47
2019-01-03T03:46:19.814Z,81.30
2019-01-03T03:47:19.801Z,81.89
2019-01-03T03:48:19.790Z,81.99
2019-01-03T03:49:19.781Z,81.79
2019-01-03T03:50:19.770Z,81.89
2019-01-03T03:51:19.757Z,81.89
2019-01-03T03:52:19.747Z,81.37
2019-01-03T03:53:19.741Z,81.16
2019-01-03T03:54:19.727Z,81.89
2019-01-03T03:55:19.716Z,81.89
2019-01-03T03:56:19.706Z,81.57
2019-01-03T03:57:19.695Z,82.06
2019-01-03T03:58:19.687Z,81.96
2019-01-03T03:59:19.676Z,81.99
2019-01-03T04:00:19.664Z,81.99
2019-01-03T04:01:19.654Z,81.75
2019-01-03T04:02:19.643Z,82.10
2019-01-03T04:03:19.632Z,81.99
2019-01-03T04:04:19.622Z,81.99
2019-01-03T04:05:19.611Z,82.31
2019-01-03T04:06:19.603Z,81.89
2019-01-03T04:07:19.601Z,81.54
2019-01-03T04:08:19.585Z,82.42
2019-01-03T04:09:19.569Z,82.06
2019-01-03T04:10:19.560Z,81.96
2019-01-03T04:11:19.547Z,81.99
2019-01-03T04:12:19.538Z,82.06
2019-01-03T04:13:19.528Z,81.85
2019-01-03T04:14:19.517Z,82.06
2019-01-03T04:15:19.506Z,82.59
2019-01-03T04:16:19.497Z,82.69
2019-01-03T04:17:19.485Z,82.59
2019-01-03T04:18:19.482Z,82.79
2019-01-03T04:19:19.466Z,83.22
2019-01-03T04:20:19.454Z,83.67
2019-01-03T04:21:19.445Z,83.64
2019-01-03T04:22:19.434Z,84.05
2019-01-03T04:23:19.427Z,84.16
2019-01-03T04:24:19.413Z,83.53
2019-01-03T04:25:19.401Z,83.59
2019-01-03T04:26:19.393Z,83.70
2019-01-03T04:27:19.385Z,83.28
2019-01-03T04:28:19.376Z,83.59
2019-01-03T04:29:19.382Z,83.91
2019-01-03T04:30:19.350Z,83.39
2019-01-03T04:31:19.342Z,83.39
2019-01-03T04:32:19.329Z,83.39
2019-01-03T04:33:19.320Z,83.59
2019-01-03T04:34:19.311Z,83.74
2019-01-03T04:35:19.301Z,84.64
2019-01-03T04:36:19.288Z,84.12
2019-01-03T04:37:19.277Z,83.49
2019-01-03T04:38:19.264Z,83.59
2019-01-03T04:39:19.259Z,83.77
2019-01-03T04:40:19.250Z,83.49
2019-01-03T04:41:19.293Z,83.66
2019-01-03T04:42:19.223Z,83.56
2019-01-03T04:43:19.214Z,83.87
2019-01-03T04:44:19.242Z,83.56
2019-01-03T04:45:19.194Z,83.56
2019-01-03T04:46:19.182Z,83.77
2019-01-03T04:47:19.178Z,83.35
2019-01-03T04:48:19.160Z,83.56
2019-01-03T04:49:19.152Z,83.98
2019-01-03T04:50:19.141Z,83.56
2019-01-03T04:51:19.131Z,83.45
2019-01-03T04:52:19.118Z,84.08
2019-01-03T04:53:19.111Z,83.98
2019-01-03T04:54:19.100Z,84.64
2019-01-03T04:55:19.094Z,84.39
2019-01-03T04:56:19.080Z,84.39
2019-01-03T04:57:19.070Z,83.98
2019-01-03T04:58:19.057Z,83.66
2019-01-03T04:59:19.048Z,83.45
2019-01-03T05:00:19.037Z,83.45
2019-01-03T05:01:19.025Z,84.12
2019-01-03T05:02:19.014Z,83.98
2019-01-03T05:03:19.005Z,84.08
2019-01-03T05:04:18.994Z,83.98
2019-01-03T05:05:18.983Z,84.50
2019-01-03T05:06:18.973Z,83.98
2019-01-03T05:07:18.961Z,84.39
2019-01-03T05:08:18.952Z,84.39
2019-01-03T05:09:18.942Z,84.29
2019-01-03T05:10:18.932Z,84.50
2019-01-03T05:11:18.924Z,84.39
2019-01-03T05:12:18.908Z,84.29
2019-01-03T05:13:18.900Z,83.98
2019-01-03T05:14:18.890Z,84.08
2019-01-03T05:15:18.887Z,84.29
2019-01-03T05:16:18.871Z,84.08
2019-01-03T05:17:18.904Z,84.01
2019-01-03T05:18:18.850Z,84.19
2019-01-03T05:19:18.836Z,84.19
2019-01-03T05:20:18.833Z,84.19
2019-01-03T05:21:18.815Z,84.39
2019-01-03T05:22:18.809Z,84.29
2019-01-03T05:23:18.794Z,84.19
2019-01-03T05:24:18.785Z,84.19
2019-01-03T05:25:18.774Z,84.19
2019-01-03T05:26:18.763Z,84.08
2019-01-03T05:27:18.754Z,84.19
2019-01-03T05:28:18.744Z,84.29
2019-01-03T05:29:18.732Z,84.08
2019-01-03T05:30:18.720Z,84.33
2019-01-03T05:31:18.712Z,84.29
2019-01-03T05:32:18.699Z,84.61
2019-01-03T05:33:18.693Z,84.50
2019-01-03T05:34:18.679Z,84.61
2019-01-03T05:35:18.679Z,84.61
2019-01-03T05:36:18.659Z,84.71
2019-01-03T05:37:18.649Z,84.19
2019-01-03T05:38:18.646Z,84.08
2019-01-03T05:39:18.625Z,84.08
2019-01-03T05:40:18.616Z,84.50
2019-01-03T05:41:18.607Z,84.39
2019-01-03T05:42:18.598Z,85.75
2019-01-03T05:43:18.587Z,85.75
2019-01-03T05:44:18.577Z,85.44
2019-01-03T05:45:18.567Z,85.34
2019-01-03T05:46:18.553Z,85.55
2019-01-03T05:47:18.542Z,85.24
2019-01-03T05:48:18.533Z,85.13
2019-01-03T05:49:18.523Z,85.44
2019-01-03T05:50:18.514Z,84.92
2019-01-03T05:51:18.502Z,85.24
2019-01-03T05:52:18.493Z,85.24
2019-01-03T05:53:18.481Z,84.71
2019-01-03T05:54:18.470Z,85.44
2019-01-03T05:55:18.460Z,85.27
2019-01-03T05:56:18.449Z,85.24
2019-01-03T05:57:18.439Z,85.55
2019-01-03T05:58:18.429Z,85.24
2019-01-03T05:59:18.416Z,85.27
2019-01-03T06:00:18.411Z,85.44
2019-01-03T06:01:18.400Z,85.34
2019-01-03T06:02:18.385Z,85.02
2019-01-03T06:03:18.380Z,84.81
2019-01-03T06:04:18.367Z,84.29
2019-01-03T06:05:18.355Z,84.50
2019-01-03T06:06:18.344Z,84.50
2019-01-03T06:07:18.345Z,84.08
2019-01-03T06:08:18.324Z,84.19
2019-01-03T06:09:18.312Z,84.29
2019-01-03T06:10:18.303Z,83.98
2019-01-03T06:11:18.292Z,84.39
2019-01-03T06:12:18.280Z,84.71
2019-01-03T06:13:18.271Z,84.08
2019-01-03T06:14:18.264Z,84.29
2019-01-03T06:15:18.248Z,84.15
2019-01-03T06:16:18.238Z,84.50
2019-01-03T06:17:18.229Z,84.08
2019-01-03T06:18:18.217Z,83.45
2019-01-03T06:19:18.208Z,83.25
2019-01-03T06:20:18.197Z,83.45
2019-01-03T06:21:18.185Z,84.08
2019-01-03T06:22:18.175Z,83.66
2019-01-03T06:23:18.166Z,83.56
2019-01-03T06:24:18.155Z,83.45
2019-01-03T06:25:18.144Z,83.10
2019-01-03T06:26:18.134Z,83.42
2019-01-03T06:27:18.124Z,83.10
2019-01-03T06:28:18.112Z,83.21
2019-01-03T06:29:18.103Z,82.79
2019-01-03T06:30:18.091Z,82.89
2019-01-03T06:31:18.082Z,82.47
2019-01-03T06:32:18.074Z,82.47
2019-01-03T06:33:18.059Z,82.12
2019-01-03T06:34:18.051Z,82.47
2019-01-03T06:35:18.040Z,82.37
2019-01-03T06:36:18.035Z,82.33
2019-01-03T06:37:18.026Z,82.47
2019-01-03T06:38:18.011Z,82.06
2019-01-03T06:39:17.998Z,82.23
2019-01-03T06:40:17.987Z,82.16
2019-01-03T06:41:17.975Z,81.81
2019-01-03T06:42:17.965Z,81.81
2019-01-03T06:43:17.956Z,81.49
2019-01-03T06:44:17.962Z,81.18
2019-01-03T06:45:17.934Z,81.60
2019-01-03T06:46:17.923Z,80.66
2019-01-03T06:47:17.917Z,80.76
2019-01-03T06:48:20.209Z,80.55
2019-01-03T06:49:17.895Z,80.87
2019-01-03T06:50:17.881Z,80.97
2019-01-03T06:51:17.873Z,80.24
2019-01-03T06:52:17.861Z,80.45
2019-01-03T06:53:17.850Z,80.45
2019-01-03T06:54:17.841Z,80.35
2019-01-03T06:55:17.829Z,80.45
2019-01-03T06:56:17.820Z,80.45
2019-01-03T06:57:17.810Z,80.35
2019-01-03T06:58:17.797Z,80.55
2019-01-03T06:59:17.788Z,80.45
2019-01-03T07:00:17.777Z,80.35
2019-01-03T07:01:17.767Z,80.55
2019-01-03T07:02:17.755Z,80.35
2019-01-03T07:03:17.745Z,80.13
2019-01-03T07:04:17.738Z,80.13
2019-01-03T07:05:17.724Z,79.99
2019-01-03T07:06:17.714Z,79.50
2019-01-03T07:07:17.703Z,79.82
2019-01-03T07:08:17.692Z,79.72
2019-01-03T07:09:17.683Z,79.05
2019-01-03T07:10:17.673Z,79.16
2019-01-03T07:11:22.087Z,79.05
2019-01-03T07:12:17.649Z,79.05
2019-01-03T07:13:17.642Z,79.30
2019-01-03T07:14:17.631Z,78.77
2019-01-03T07:15:17.623Z,78.95
2019-01-03T07:16:17.608Z,79.26
2019-01-03T07:17:17.599Z,78.85
2019-01-03T07:18:17.588Z,79.09
2019-01-03T07:19:17.576Z,79.30
2019-01-03T07:20:17.565Z,79.36
2019-01-03T07:21:17.556Z,79.30
2019-01-03T07:22:17.546Z,79.09
2019-01-03T07:23:17.535Z,79.16
2019-01-03T07:24:17.525Z,79.26
2019-01-03T07:25:17.516Z,78.99
2019-01-03T07:26:17.504Z,79.05
2019-01-03T07:27:17.494Z,78.85
2019-01-03T07:28:17.483Z,79.05
2019-01-03T07:29:17.477Z,78.95
2019-01-03T07:30:17.462Z,78.74
2019-01-03T07:31:17.453Z,78.63
2019-01-03T07:32:17.442Z,78.74
2019-01-03T07:33:17.430Z,78.85
2019-01-03T07:34:17.421Z,78.63
2019-01-03T07:35:17.409Z,78.63
2019-01-03T07:36:17.398Z,79.09
2019-01-03T07:37:17.394Z,78.88
2019-01-03T07:38:17.379Z,78.67
2019-01-03T07:39:17.369Z,78.67
2019-01-03T07:40:17.356Z,78.67
2019-01-03T07:41:17.346Z,78.32
2019-01-03T07:42:17.336Z,78.22
2019-01-03T07:43:17.328Z,78.74
2019-01-03T07:44:17.315Z,78.32
2019-01-03T07:45:17.305Z,78.53
2019-01-03T07:46:17.293Z,78.22
2019-01-03T07:47:17.281Z,77.80
2019-01-03T07:48:17.271Z,77.87
2019-01-03T07:49:17.263Z,77.87
2019-01-03T07:50:17.252Z,78.22
2019-01-03T07:51:17.239Z,77.97
2019-01-03T07:52:17.236Z,77.97
2019-01-03T07:53:17.220Z,78.28
2019-01-03T07:54:17.208Z,78.28
2019-01-03T07:55:17.199Z,77.76
2019-01-03T07:56:17.187Z,77.14
2019-01-03T07:57:17.177Z,77.97
2019-01-03T07:58:17.168Z,77.55
2019-01-03T07:59:17.157Z,77.00
2019-01-03T08:00:17.145Z,77.20
2019-01-03T08:01:17.158Z,76.57
2019-01-03T08:02:17.124Z,76.93
2019-01-03T08:03:17.115Z,76.93
2019-01-03T08:04:17.103Z,76.40
2019-01-03T08:05:17.094Z,76.93
2019-01-03T08:06:17.085Z,76.82
2019-01-03T08:07:17.073Z,76.37
2019-01-03T08:08:17.067Z,76.47
2019-01-03T08:09:17.049Z,77.20
2019-01-03T08:10:17.041Z,76.93
2019-01-03T08:11:17.029Z,76.06
2019-01-03T08:12:17.021Z,77.00
2019-01-03T08:13:17.011Z,76.06
2019-01-03T08:14:16.997Z,77.00
2019-01-03T08:15:16.988Z,75.67
2019-01-03T08:16:16.977Z,76.37
2019-01-03T08:17:16.971Z,75.43
2019-01-03T08:18:16.965Z,75.95
2019-01-03T08:19:16.946Z,75.95
2019-01-03T08:20:16.935Z,76.26
2019-01-03T08:21:16.926Z,76.26
2019-01-03T08:22:16.915Z,75.85
2019-01-03T08:23:16.904Z,76.26
2019-01-03T08:24:16.896Z,75.85
2019-01-03T08:25:16.883Z,76.06
2019-01-03T08:26:16.872Z,76.47
2019-01-03T08:27:16.862Z,76.06
2019-01-03T08:28:16.853Z,76.26
2019-01-03T08:29:16.842Z,75.81
2019-01-03T08:30:16.831Z,76.16
2019-01-03T08:31:16.821Z,75.18
2019-01-03T08:32:16.809Z,75.18
2019-01-03T08:33:16.798Z,74.87
2019-01-03T08:34:16.794Z,74.45
2019-01-03T08:35:16.777Z,74.84
2019-01-03T08:36:16.766Z,74.56
2019-01-03T08:37:16.755Z,74.56
2019-01-03T08:38:16.744Z,74.52
2019-01-03T08:39:16.737Z,74.14
2019-01-03T08:40:16.727Z,74.04
2019-01-03T08:41:16.716Z,74.63
2019-01-03T08:42:16.705Z,74.01
2019-01-03T08:43:16.693Z,74.35
2019-01-03T08:44:16.682Z,73.93
2019-01-03T08:45:16.673Z,74.04
2019-01-03T08:46:16.663Z,73.58
2019-01-03T08:47:16.651Z,73.27
2019-01-03T08:48:16.641Z,73.48
2019-01-03T08:49:18.649Z,73.58
2019-01-03T08:50:16.619Z,73.58
2019-01-03T08:51:16.608Z,72.75
2019-01-03T08:52:16.598Z,72.75
2019-01-03T08:53:16.588Z,72.13
2019-01-03T08:54:16.577Z,71.67
2019-01-03T08:55:16.567Z,72.13
2019-01-03T08:56:16.560Z,72.23
2019-01-03T08:57:16.545Z,71.70
2019-01-03T08:58:16.537Z,72.02
2019-01-03T08:59:16.523Z,71.67
2019-01-03T09:00:16.514Z,72.30
2019-01-03T09:01:16.504Z,72.02
2019-01-03T09:02:16.493Z,71.81
2019-01-03T09:03:16.484Z,72.41
2019-01-03T09:04:16.471Z,72.44
2019-01-03T09:05:16.464Z,72.23
2019-01-03T09:06:16.451Z,72.33
2019-01-03T09:07:16.441Z,71.81
2019-01-03T09:08:16.428Z,72.33
2019-01-03T09:09:16.418Z,72.13
2019-01-03T09:10:16.408Z,72.13
2019-01-03T09:11:16.399Z,72.64
2019-01-03T09:12:16.387Z,72.44
2019-01-03T09:13:16.376Z,72.02
2019-01-03T09:14:16.369Z,72.23
2019-01-03T09:15:16.356Z,71.70
2019-01-03T09:16:16.345Z,71.91
2019-01-03T09:17:16.333Z,71.29
2019-01-03T09:18:16.327Z,71.60
2019-01-03T09:19:16.314Z,71.70
2019-01-03T09:20:16.307Z,71.19
2019-01-03T09:21:16.291Z,71.19
2019-01-03T09:22:16.282Z,71.39
2019-01-03T09:23:16.271Z,71.81
2019-01-03T09:24:16.261Z,71.36
2019-01-03T09:25:16.251Z,71.04
2019-01-03T09:26:16.240Z,70.63
2019-01-03T09:27:16.229Z,71.08
2019-01-03T09:28:16.221Z,71.15
2019-01-03T09:29:16.221Z,71.78
2019-01-03T09:30:16.197Z,71.57
2019-01-03T09:31:16.190Z,71.19
2019-01-03T09:32:16.177Z,71.70
2019-01-03T09:33:16.169Z,71.47
2019-01-03T09:34:16.155Z,71.91
2019-01-03T09:35:16.145Z,71.91
2019-01-03T09:36:16.134Z,71.91
2019-01-03T09:37:16.123Z,71.70
2019-01-03T09:38:16.114Z,71.39
2019-01-03T09:39:16.103Z,72.33
2019-01-03T09:40:16.094Z,72.82
2019-01-03T09:41:16.082Z,73.07
2019-01-03T09:42:16.070Z,74.01
2019-01-03T09:43:16.060Z,74.42
2019-01-03T09:44:16.053Z,75.05
2019-01-03T09:45:16.041Z,74.84
2019-01-03T09:46:16.028Z,74.63
2019-01-03T09:47:16.017Z,75.15
2019-01-03T09:48:16.007Z,75.88
2019-01-03T09:49:16.390Z,75.15
2019-01-03T09:50:15.988Z,75.46
2019-01-03T09:51:15.983Z,75.67
2019-01-03T09:52:15.965Z,75.36
2019-01-03T09:53:15.953Z,75.05
2019-01-03T09:54:15.943Z,75.01
2019-01-03T09:55:15.935Z,74.52
2019-01-03T09:56:15.923Z,74.94
2019-01-03T09:57:15.912Z,75.05
2019-01-03T09:58:15.908Z,74.63
2019-01-03T09:59:15.892Z,74.42
2019-01-03T10:00:15.881Z,75.05
2019-01-03T10:01:15.870Z,74.01
2019-01-03T10:02:15.859Z,73.90
2019-01-03T10:03:15.848Z,73.90
2019-01-03T10:04:15.838Z,74.11
2019-01-03T10:05:15.829Z,74.73
2019-01-03T10:06:15.822Z,74.73
2019-01-03T10:07:15.808Z,74.52
2019-01-03T10:08:19.534Z,74.45
2019-01-03T10:09:15.786Z,75.05
2019-01-03T10:10:15.775Z,75.78
2019-01-03T10:11:15.766Z,76.02
2019-01-03T10:12:15.754Z,76.12
2019-01-03T10:13:15.742Z,76.20
2019-01-03T10:14:15.736Z,76.96
2019-01-03T10:15:15.724Z,78.00
2019-01-03T10:16:15.713Z,78.94
2019-01-03T10:17:15.701Z,79.15
2019-01-03T10:18:15.691Z,79.36
2019-01-03T10:19:15.681Z,79.47
2019-01-03T10:20:15.670Z,80.20
2019-01-03T10:21:15.659Z,79.78
2019-01-03T10:22:15.649Z,79.68
2019-01-03T10:23:15.637Z,79.26
2019-01-03T10:24:15.630Z,80.72
2019-01-03T10:25:15.617Z,80.30
2019-01-03T10:26:15.607Z,79.15
2019-01-03T10:27:15.596Z,79.15
2019-01-03T10:28:15.587Z,79.26
2019-01-03T10:29:15.576Z,78.94
2019-01-03T10:30:15.564Z,79.05
2019-01-03T10:31:15.556Z,79.05
2019-01-03T10:32:15.543Z,78.53
2019-01-03T10:33:15.532Z,78.32
2019-01-03T10:34:15.521Z,78.21
2019-01-03T10:35:15.512Z,77.97
2019-01-03T10:36:15.501Z,78.07
2019-01-03T10:37:15.493Z,77.86
2019-01-03T10:38:20.850Z,77.76
2019-01-03T10:39:16.471Z,77.76
2019-01-03T10:40:15.458Z,77.76
2019-01-03T10:41:15.448Z,77.66
2019-01-03T10:42:15.437Z,77.03
2019-01-03T10:43:15.427Z,77.76
2019-01-03T10:44:15.416Z,77.66
2019-01-03T10:45:15.408Z,78.07
2019-01-03T10:46:15.394Z,77.31
2019-01-03T10:47:15.387Z,77.62
2019-01-03T10:48:15.373Z,75.95
2019-01-03T10:49:15.363Z,76.26
2019-01-03T10:50:15.355Z,76.37
2019-01-03T10:51:15.342Z,76.06
2019-01-03T10:52:15.333Z,75.81
2019-01-03T10:53:15.322Z,75.81
2019-01-03T10:54:15.311Z,75.18
2019-01-03T10:55:15.301Z,75.81
2019-01-03T10:56:15.289Z,75.29
2019-01-03T10:57:15.281Z,75.50
2019-01-03T10:58:15.268Z,76.12
2019-01-03T10:59:15.259Z,75.50
2019-01-03T11:00:15.255Z,75.95
2019-01-03T11:01:15.236Z,76.47
2019-01-03T11:02:15.226Z,77.51
2019-01-03T11:03:15.215Z,77.10
2019-01-03T11:04:15.205Z,77.83
2019-01-03T11:05:15.194Z,77.72
2019-01-03T11:06:15.183Z,77.94
2019-01-03T11:07:15.177Z,77.72
2019-01-03T11:08:15.162Z,78.45
2019-01-03T11:09:15.152Z,78.87
2019-01-03T11:10:15.142Z,78.97
2019-01-03T11:11:15.133Z,78.52
2019-01-03T11:12:15.120Z,78.42
2019-01-03T11:13:15.111Z,78.83
2019-01-03T11:14:15.099Z,78.52
2019-01-03T11:15:15.090Z,78.38
2019-01-03T11:16:15.078Z,78.69
2019-01-03T11:17:15.068Z,78.59
2019-01-03T11:18:15.056Z,78.66
2019-01-03T11:19:15.047Z,78.28
2019-01-03T11:20:15.036Z,79.11
2019-01-03T11:21:15.024Z,80.51
2019-01-03T11:22:15.013Z,80.33
2019-01-03T11:23:15.005Z,81.06
2019-01-03T11:24:14.996Z,81.48
2019-01-03T11:25:14.984Z,81.38
2019-01-03T11:26:14.973Z,81.76
2019-01-03T11:27:14.962Z,81.16
2019-01-03T11:28:14.952Z,81.16
2019-01-03T11:29:14.945Z,81.86
2019-01-03T11:30:14.929Z,81.55
2019-01-03T11:31:14.918Z,80.92
2019-01-03T11:32:14.908Z,81.34
2019-01-03T11:33:14.905Z,80.71
2019-01-03T11:34:14.888Z,80.71
2019-01-03T11:35:14.876Z,80.92
2019-01-03T11:36:14.869Z,80.40
2019-01-03T11:37:14.856Z,80.19
2019-01-03T11:38:14.845Z,79.98
2019-01-03T11:39:14.833Z,79.98
2019-01-03T11:40:14.825Z,79.88
2019-01-03T11:41:14.814Z,79.98
2019-01-03T11:42:14.803Z,79.32
2019-01-03T11:43:14.790Z,79.11
2019-01-03T11:44:14.781Z,78.77
2019-01-03T11:45:14.770Z,78.56
2019-01-03T11:46:14.762Z,77.62
2019-01-03T11:47:14.748Z,77.37
2019-01-03T11:48:14.741Z,77.31
2019-01-03T11:49:14.728Z,77.72
2019-01-03T11:50:14.721Z,77.51
2019-01-03T11:51:14.708Z,76.99
2019-01-03T11:52:14.697Z,76.37
2019-01-03T11:53:14.686Z,76.57
2019-01-03T11:54:14.675Z,75.95
2019-01-03T11:55:14.665Z,76.26
2019-01-03T11:56:14.654Z,75.85
2019-01-03T11:57:14.644Z,75.64
2019-01-03T11:58:14.634Z,75.74
2019-01-03T11:59:14.624Z,75.53
2019-01-03T12:00:14.613Z,75.43
2019-01-03T12:01:14.604Z,75.22
2019-01-03T12:02:14.591Z,76.16
2019-01-03T12:03:14.583Z,75.64
2019-01-03T12:04:14.571Z,75.43
2019-01-03T12:05:14.556Z,75.95
2019-01-03T12:06:14.546Z,75.74
2019-01-03T12:07:14.538Z,75.12
2019-01-03T12:08:14.528Z,75.22
2019-01-03T12:09:14.516Z,74.91
2019-01-03T12:10:14.506Z,76.06
2019-01-03T12:11:14.494Z,74.70
2019-01-03T12:12:14.484Z,74.98
2019-01-03T12:13:14.473Z,74.87
2019-01-03T12:14:14.463Z,74.87
2019-01-03T12:15:14.453Z,75.09
2019-01-03T12:16:14.442Z,75.09
2019-01-03T12:17:14.430Z,75.19
2019-01-03T12:18:14.423Z,75.19
2019-01-03T12:19:14.412Z,74.35
2019-01-03T12:20:14.400Z,74.56
2019-01-03T12:21:14.387Z,74.46
2019-01-03T12:22:14.378Z,74.87
2019-01-03T12:23:14.370Z,74.66
2019-01-03T12:24:14.359Z,74.98
2019-01-03T12:25:14.351Z,74.87
2019-01-03T12:26:14.335Z,74.66
2019-01-03T12:27:14.325Z,74.98
2019-01-03T12:28:14.314Z,74.98
2019-01-03T12:29:14.303Z,74.87
2019-01-03T12:30:14.295Z,75.09
2019-01-03T12:31:14.283Z,74.56
2019-01-03T12:32:14.272Z,74.77
2019-01-03T12:33:14.263Z,75.40
2019-01-03T12:34:14.250Z,74.87
2019-01-03T12:35:14.241Z,75.29
2019-01-03T12:36:14.229Z,75.40
2019-01-03T12:37:14.221Z,75.60
2019-01-03T12:38:14.207Z,75.09
2019-01-03T12:39:14.199Z,74.98
2019-01-03T12:40:15.054Z,75.19
2019-01-03T12:41:14.177Z,75.29
2019-01-03T12:42:14.167Z,75.60
2019-01-03T12:43:14.155Z,75.92
2019-01-03T12:44:14.145Z,75.81
2019-01-03T12:45:14.135Z,75.50
2019-01-03T12:46:14.125Z,75.40
2019-01-03T12:47:14.114Z,75.40
2019-01-03T12:48:14.103Z,76.23
2019-01-03T12:49:14.090Z,75.19
2019-01-03T12:50:14.081Z,75.19
2019-01-03T12:51:14.069Z,75.46
2019-01-03T12:52:14.058Z,75.50